Time;durP1;ratioP1;P1;durP2;ratioP2;P2;SDS_P1;SDS_P2;PMS_P1;PMS_P2;Temp;Humidity;BMP_temperature;BMP_pressure;BME280_temperature;BME280_humidity;BME280_pressure;Samples;Min_cycle;Max_cycle;Signal;HPM_P1;HPM_P2
2022/08/19 00:00:13;;;;;;;5.93;4.38;;;;;;;21.03;66.37;94364.38;5105675;28;20209;-74
2022/08/19 00:02:41;;;;;;;7.20;4.35;;;;;;;20.94;66.83;94362.03;5106044;28;20290;-74
2022/08/19 00:05:10;;;;;;;6.18;4.22;;;;;;;20.91;66.61;94373.84;5106330;28;20204;-74
2022/08/19 00:07:37;;;;;;;5.20;4.70;;;;;;;20.93;66.10;94371.47;5106219;28;20228;-73
2022/08/19 00:10:07;;;;;;;7.75;4.32;;;;;;;20.84;65.89;94379.41;5105967;28;20213;-74
2022/08/19 00:12:36;;;;;;;5.50;3.65;;;;;;;20.73;65.60;94373.16;5106076;28;20230;-74
2022/08/19 00:15:03;;;;;;;3.95;3.38;;;;;;;20.69;65.15;94367.66;5105746;28;20209;-74
2022/08/19 00:17:30;;;;;;;4.20;3.50;;;;;;;20.54;65.56;94377.13;5105340;28;20331;-73
2022/08/19 00:19:57;;;;;;;4.93;3.63;;;;;;;20.52;66.04;94382.22;5105634;28;20201;-73
2022/08/19 00:22:26;;;;;;;6.70;4.88;;;;;;;20.54;65.63;94379.88;5105364;28;20198;-73
2022/08/19 00:24:53;;;;;;;5.10;3.78;;;;;;;20.58;65.78;94384.19;5105589;28;20202;-73
2022/08/19 00:27:21;;;;;;;7.45;3.65;;;;;;;20.56;66.52;94392.06;5105296;28;20198;-73
2022/08/19 00:29:48;;;;;;;4.68;3.80;;;;;;;20.52;66.71;94380.28;5090548;28;20218;-73
2022/08/19 00:32:15;;;;;;;8.73;4.78;;;;;;;20.52;67.01;94383.03;5091794;28;20248;-73
2022/08/19 00:34:43;;;;;;;5.72;4.28;;;;;;;20.48;67.16;94385.00;5092073;28;20300;-73
2022/08/19 00:37:10;;;;;;;4.28;3.65;;;;;;;20.48;67.84;94385.00;5078184;28;20672;-74
2022/08/19 00:39:37;;;;;;;6.30;3.72;;;;;;;20.53;67.50;94381.06;5091963;28;20206;-74
2022/08/19 00:42:06;;;;;;;5.70;3.95;;;;;;;20.37;67.70;94377.94;5091729;28;20588;-74
2022/08/19 00:44:35;;;;;;;6.20;4.32;;;;;;;20.32;67.92;94376.38;5091219;28;20199;-73
2022/08/19 00:47:02;;;;;;;4.97;3.70;;;;;;;20.40;68.22;94371.66;5090659;28;20251;-73
2022/08/19 00:49:32;;;;;;;7.00;3.53;;;;;;;20.44;67.02;94373.22;5091511;28;20267;-73
2022/08/19 00:52:02;;;;;;;6.93;3.67;;;;;;;20.41;66.74;94374.00;5091639;28;20372;-74
2022/08/19 00:54:31;;;;;;;5.32;3.85;;;;;;;20.36;68.10;94377.19;5091543;28;20194;-73
2022/08/19 00:56:58;;;;;;;4.70;3.67;;;;;;;20.44;67.74;94364.97;5091553;28;20257;-74
2022/08/19 00:59:26;;;;;;;6.78;3.92;;;;;;;20.35;67.20;94372.81;5091664;28;20405;-74
2022/08/19 01:01:55;;;;;;;6.63;4.00;;;;;;;20.37;68.02;94372.44;5091274;28;20271;-73
2022/08/19 01:04:21;;;;;;;6.13;4.25;;;;;;;20.25;67.99;94373.59;5091110;28;20681;-74
2022/08/19 01:06:48;;;;;;;5.38;3.60;;;;;;;20.29;67.60;94376.34;5091473;28;20610;-74
2022/08/19 01:09:15;;;;;;;5.45;4.50;;;;;;;20.26;67.66;94372.44;5091162;28;20256;-74
2022/08/19 01:11:45;;;;;;;5.35;4.32;;;;;;;20.17;68.32;94369.31;5091156;28;20661;-73
2022/08/19 01:14:14;;;;;;;5.43;3.78;;;;;;;20.25;68.61;94376.34;5090702;28;20612;-73
2022/08/19 01:16:42;;;;;;;5.85;3.97;;;;;;;20.06;69.98;94374.03;5090707;28;20234;-73
2022/08/19 01:19:20;;;;;;;5.32;3.90;;;;;;;20.00;70.24;94370.88;5090343;28;20202;-73
2022/08/19 01:21:53;;;;;;;5.50;3.80;;;;;;;19.96;70.08;94369.31;5091351;28;20205;-74
2022/08/19 01:24:22;;;;;;;5.47;4.28;;;;;;;19.92;70.35;94368.53;5079164;28;20734;-74
2022/08/19 01:26:49;;;;;;;6.43;4.03;;;;;;;19.95;70.79;94368.56;5091230;28;20210;-73
2022/08/19 01:29:16;;;;;;;5.85;3.72;;;;;;;19.96;70.45;94372.06;5090540;28;20202;-74
2022/08/19 01:31:43;;;;;;;5.07;3.95;;;;;;;19.76;70.51;94366.97;5090788;28;20314;-74
2022/08/19 01:34:10;;;;;;;4.63;3.80;;;;;;;19.76;70.92;94372.47;5090520;28;20197;-73
2022/08/19 01:36:41;;;;;;;6.20;4.68;;;;;;;19.69;71.29;94377.94;5090754;28;20292;-74
2022/08/19 01:39:11;;;;;;;5.85;4.63;;;;;;;19.68;71.49;94370.88;5090222;28;20795;-73
2022/08/19 01:41:40;;;;;;;9.95;4.43;;;;;;;19.82;70.95;94370.88;5089593;28;20213;-74
2022/08/19 01:44:09;;;;;;;9.38;4.65;;;;;;;19.81;70.56;94374.84;5090399;28;20268;-73
2022/08/19 01:46:36;;;;;;;7.95;4.90;;;;;;;19.90;70.29;94370.91;5089903;28;20259;-73
2022/08/19 01:49:05;;;;;;;5.05;4.07;;;;;;;19.91;70.57;94372.47;5089715;28;20202;-73
2022/08/19 01:51:32;;;;;;;9.60;4.63;;;;;;;19.87;70.91;94378.75;5090404;28;20213;-73
2022/08/19 01:53:59;;;;;;;7.57;4.63;;;;;;;19.81;71.14;94379.53;5090549;28;20209;-73
2022/08/19 01:56:26;;;;;;;6.38;4.25;;;;;;;19.77;71.36;94379.53;5090151;28;20244;-73
2022/08/19 01:58:58;;;;;;;5.72;4.15;;;;;;;19.74;71.27;94374.81;5090210;28;20233;-73
2022/08/19 02:01:25;;;;;;;5.85;4.22;;;;;;;19.64;71.78;94375.59;5089860;28;20585;-73
2022/08/19 02:03:53;;;;;;;6.63;4.70;;;;;;;19.61;71.92;94370.88;5089848;28;20198;-73
2022/08/19 02:06:21;;;;;;;5.10;4.22;;;;;;;19.47;72.20;94376.31;5090111;28;20204;-73
2022/08/19 02:08:48;;;;;;;6.18;4.30;;;;;;;19.45;71.84;94384.16;5089817;28;20202;-74
2022/08/19 02:11:21;;;;;;;5.50;4.00;;;;;;;19.46;71.71;94370.03;5089623;28;20317;-73
2022/08/19 02:13:49;;;;;;;7.40;4.97;;;;;;;19.46;71.29;94372.00;5089464;28;20255;-73
2022/08/19 02:16:19;;;;;;;6.32;4.68;;;;;;;19.45;71.14;94378.69;5089907;28;20256;-74
2022/08/19 02:18:46;;;;;;;6.30;4.70;;;;;;;19.39;71.39;94372.00;5089368;28;20597;-74
2022/08/19 02:21:14;;;;;;;8.80;5.05;;;;;;;19.39;71.36;94380.25;5089721;28;20206;-74
2022/08/19 02:23:41;;;;;;;8.25;4.72;;;;;;;19.35;71.36;94373.97;5089694;28;20209;-74
2022/08/19 02:26:08;;;;;;;7.03;4.35;;;;;;;19.36;71.49;94381.03;5089766;28;20267;-74
2022/08/19 02:28:36;;;;;;;5.85;4.32;;;;;;;19.31;71.49;94378.66;5089211;28;20221;-74
2022/08/19 02:31:03;;;;;;;6.60;4.32;;;;;;;19.33;71.54;94376.28;5089173;28;20762;-74
2022/08/19 02:33:31;;;;;;;5.72;4.07;;;;;;;19.29;71.86;94381.00;5089273;28;20266;-74
2022/08/19 02:35:58;;;;;;;5.80;3.95;;;;;;;19.32;72.13;94380.22;5089408;28;20194;-73
2022/08/19 02:38:26;;;;;;;9.80;4.43;;;;;;;19.33;72.42;94381.78;5089488;28;20267;-74
2022/08/19 02:40:56;;;;;;;7.40;3.95;;;;;;;19.21;72.91;94376.66;5089660;28;20217;-73
2022/08/19 02:43:25;;;;;;;7.30;4.80;;;;;;;19.16;73.22;94388.81;5089962;28;20259;-75
2022/08/19 02:45:53;;;;;;;8.18;4.55;;;;;;;19.13;73.56;94382.13;5089705;28;20229;-73
2022/08/19 02:48:22;;;;;;;7.80;4.05;;;;;;;19.15;73.46;94384.50;5088991;28;20202;-73
2022/08/19 02:50:54;;;;;;;5.65;4.50;;;;;;;19.16;73.40;94388.81;5088314;28;20202;-74
2022/08/19 02:53:21;;;;;;;7.10;4.80;;;;;;;19.34;73.53;94391.59;5089580;28;20211;-73
2022/08/19 02:55:49;;;;;;;9.20;4.32;;;;;;;19.28;73.72;94390.41;5089436;28;20195;-72
2022/08/19 02:58:17;;;;;;;6.95;4.57;;;;;;;19.24;73.59;94392.38;5088950;28;20782;-75
2022/08/19 03:00:44;;;;;;;6.22;4.50;;;;;;;19.28;73.45;94391.19;5089203;28;20696;-73
2022/08/19 03:03:12;;;;;;;9.73;4.82;;;;;;;19.25;73.44;94388.47;5089505;28;20206;-75
2022/08/19 03:05:39;;;;;;;6.28;4.43;;;;;;;19.22;73.74;94389.22;5089439;28;20208;-74
2022/08/19 03:08:08;;;;;;;7.70;4.70;;;;;;;19.24;73.59;94395.13;5075796;28;20206;-74
2022/08/19 03:10:41;;;;;;;5.63;4.20;;;;;;;19.22;73.75;94402.97;5089318;28;20290;-74
2022/08/19 03:13:08;;;;;;;9.98;4.63;;;;;;;19.16;74.41;94388.81;5089210;28;20573;-74
2022/08/19 03:15:35;;;;;;;6.97;4.18;;;;;;;19.09;74.65;94395.06;5089401;28;20289;-74
2022/08/19 03:18:02;;;;;;;7.03;4.50;;;;;;;19.11;74.40;94387.25;5088566;28;20230;-74
2022/08/19 03:20:29;;;;;;;5.97;4.38;;;;;;;19.03;74.82;94385.63;5088676;28;20214;-74
2022/08/19 03:22:55;;;;;;;5.53;4.53;;;;;;;19.06;74.04;94379.38;5088777;28;20217;-74
2022/08/19 03:25:24;;;;;;;6.85;4.43;;;;;;;19.14;74.12;94386.44;5088655;28;20722;-73
2022/08/19 03:27:51;;;;;;;13.48;4.35;;;;;;;19.08;73.64;94382.53;5088951;28;20294;-74
2022/08/19 03:30:17;;;;;;;5.93;4.00;;;;;;;19.16;73.73;94378.59;5088767;28;20226;-74
2022/08/19 03:32:44;;;;;;;6.38;4.00;;;;;;;19.06;73.97;94384.88;5088415;28;20198;-74
2022/08/19 03:35:12;;;;;;;6.03;4.18;;;;;;;19.07;73.93;94380.94;5088507;28;20255;-73
2022/08/19 03:37:38;;;;;;;6.78;4.47;;;;;;;19.08;73.92;94381.72;5089042;28;20230;-74
2022/08/19 03:40:06;;;;;;;6.05;4.65;;;;;;;19.18;73.21;94389.22;5088792;28;20778;-73
2022/08/19 03:42:34;;;;;;;5.75;4.10;;;;;;;19.20;73.10;94383.31;5088447;28;20217;-74
2022/08/19 03:45:01;;;;;;;6.00;4.53;;;;;;;19.24;73.10;94392.38;5087904;28;20738;-74
2022/08/19 03:47:28;;;;;;;6.50;4.45;;;;;;;19.36;72.51;94392.00;5087870;28;20278;-74
2022/08/19 03:49:55;;;;;;;8.07;5.03;;;;;;;19.43;72.22;94400.25;5088373;28;20704;-74
2022/08/19 03:52:22;;;;;;;5.18;3.55;;;;;;;19.69;70.64;94402.69;5088267;28;20244;-74
2022/08/19 03:54:48;;;;;;;7.80;4.30;;;;;;;20.29;69.24;94399.16;5088144;28;20207;-74
2022/08/19 03:57:15;;;;;;;5.72;4.28;;;;;;;21.06;66.49;94404.88;5088331;28;20709;-74
2022/08/19 03:59:44;;;;;;;6.82;4.18;;;;;;;21.70;64.65;94407.34;5088322;28;20209;-74
2022/08/19 04:02:12;;;;;;;5.13;3.88;;;;;;;22.15;62.76;94409.00;5084562;28;20222;-75
2022/08/19 04:04:42;;;;;;;6.13;5.13;;;;;;;22.67;61.16;94404.19;5091409;28;20205;-76
2022/08/19 04:07:10;;;;;;;7.15;5.07;;;;;;;23.31;59.37;94405.44;5092047;28;20750;-76
2022/08/19 04:09:37;;;;;;;10.52;6.32;;;;;;;23.71;57.97;94403.75;5091564;28;20866;-75
2022/08/19 04:12:06;;;;;;;6.15;5.13;;;;;;;23.98;57.14;94400.97;5088325;28;20202;-75
2022/08/19 04:14:33;;;;;;;6.85;4.72;;;;;;;24.49;55.36;94401.75;5090984;28;20224;-75
2022/08/19 04:17:04;;;;;;;7.28;5.32;;;;;;;24.74;54.64;94397.31;5091682;28;20589;-75
2022/08/19 04:19:32;;;;;;;6.18;4.95;;;;;;;25.25;53.15;94397.97;5092152;28;20324;-75
2022/08/19 04:21:59;;;;;;;6.68;5.40;;;;;;;25.36;52.69;94409.63;5092033;28;20198;-75
2022/08/19 04:24:26;;;;;;;6.55;5.30;;;;;;;25.50;52.24;94408.53;5091557;28;20683;-75
2022/08/19 04:26:53;;;;;;;5.80;4.82;;;;;;;25.78;51.61;94415.50;5092588;28;20271;-76
2022/08/19 04:29:24;;;;;;;7.63;5.75;;;;;;;26.19;50.73;94409.38;5092177;28;20275;-76
2022/08/19 04:31:53;;;;;;;5.70;5.10;;;;;;;26.68;49.09;94412.16;5092674;28;20439;-75
2022/08/19 04:34:23;;;;;;;7.50;3.95;;;;;;;27.18;47.58;94400.53;5092042;28;20571;-75
2022/08/19 04:36:51;;;;;;;5.53;4.47;;;;;;;27.87;46.29;94400.94;5091856;28;20315;-76
2022/08/19 04:39:21;;;;;;;5.72;4.70;;;;;;;27.94;45.73;94395.13;5091654;28;20322;-76
2022/08/19 04:44:33;;;;;;;7.80;4.97;;;;;;;28.77;43.66;94394.03;5091757;28;20201;-76
2022/08/19 04:47:00;;;;;;;9.13;5.63;;;;;;;28.69;43.42;94393.50;5092028;28;20243;-75
2022/08/19 04:49:29;;;;;;;5.85;5.25;;;;;;;28.55;43.93;94394.00;5092019;28;20549;-76
2022/08/19 04:51:56;;;;;;;7.13;5.75;;;;;;;29.03;43.28;94389.19;5091823;28;20229;-76
2022/08/19 04:54:25;;;;;;;7.50;6.00;;;;;;;29.63;42.54;94393.38;5091080;28;20658;-75
2022/08/19 04:56:54;;;;;;;8.35;5.65;;;;;;;29.80;42.02;94395.91;5091268;28;20203;-76
2022/08/19 04:59:21;;;;;;;8.25;5.50;;;;;;;29.82;42.69;94399.03;5090143;28;20222;-74
2022/08/19 05:01:49;;;;;;;7.45;5.93;;;;;;;30.17;41.91;94397.69;5091217;28;20231;-74
2022/08/19 05:04:18;;;;;;;8.05;5.95;;;;;;;30.78;41.02;94407.19;5091332;28;20287;-75
2022/08/19 05:06:47;;;;;;;7.75;6.50;;;;;;;31.11;40.07;94403.84;5091078;28;20676;-76
2022/08/19 05:09:16;;;;;;;7.35;6.32;;;;;;;30.96;39.96;94410.03;5090911;28;20202;-76
2022/08/19 05:11:43;;;;;;;9.63;6.38;;;;;;;31.18;39.74;94411.91;5091035;28;20648;-76
2022/08/19 05:14:12;;;;;;;10.45;6.75;;;;;;;30.77;40.66;94416.81;5091088;28;20198;-76
2022/08/19 05:16:39;;;;;;;7.43;6.35;;;;;;;31.19;40.15;94402.28;5090856;28;20589;-76
2022/08/19 05:24:36;;;;;;;7.38;6.57;;;;;;;32.23;37.11;94402.75;5091065;28;20189;-75
2022/08/19 05:27:05;;;;;;;7.35;6.38;;;;;;;31.96;37.35;94408.44;5090332;28;20206;-74
2022/08/19 05:29:34;;;;;;;7.22;6.43;;;;;;;32.85;35.93;94402.13;5090066;28;20316;-74
2022/08/19 05:32:02;;;;;;;16.83;7.07;;;;;;;32.45;36.31;94405.31;5089932;28;20195;-75
2022/08/19 05:34:29;;;;;;;6.63;5.93;;;;;;;33.16;34.67;94413.78;5089782;28;20190;-75
2022/08/19 05:36:59;;;;;;;7.18;5.85;;;;;;;32.84;36.05;94409.00;5090575;28;20255;-76
2022/08/19 05:39:30;;;;;;;7.68;6.40;;;;;;;33.37;35.27;94411.13;5090004;28;20233;-75
2022/08/19 05:42:00;;;;;;;8.00;6.47;;;;;;;33.53;35.04;94411.47;5089609;28;20198;-75
2022/08/19 05:44:31;;;;;;;8.02;6.30;;;;;;;34.25;33.16;94411.22;5090545;28;20251;-75
2022/08/19 05:46:58;;;;;;;10.10;6.15;;;;;;;33.93;33.92;94412.19;5085579;28;20702;-75
2022/08/19 05:49:25;;;;;;;7.28;6.57;;;;;;;34.35;33.16;94398.59;5090548;28;20198;-75
2022/08/19 05:51:52;;;;;;;7.35;5.82;;;;;;;33.52;33.68;94407.09;5090564;28;20217;-75
2022/08/19 05:54:21;;;;;;;5.70;5.18;;;;;;;34.46;32.74;94404.41;5089945;28;20672;-74
2022/08/19 05:56:48;;;;;;;5.82;5.22;;;;;;;34.56;31.87;94402.25;5090440;28;20203;-75
2022/08/19 05:59:17;;;;;;;5.82;5.22;;;;;;;35.05;31.08;94404.22;5089787;28;20309;-75
2022/08/19 06:01:46;;;;;;;5.93;4.75;;;;;;;35.81;30.74;94402.06;5090154;28;20205;-75
2022/08/19 06:04:14;;;;;;;6.28;4.68;;;;;;;35.32;30.64;94405.09;5089908;28;20202;-75
2022/08/19 06:06:41;;;;;;;6.32;4.90;;;;;;;35.06;31.37;94411.41;5090320;28;20247;-73
2022/08/19 06:09:09;;;;;;;5.75;4.80;;;;;;;34.96;30.80;94412.81;5088697;28;20198;-76
2022/08/19 06:11:40;;;;;;;5.05;4.55;;;;;;;34.53;31.77;94408.84;5090261;28;20206;-77
2022/08/19 06:14:10;;;;;;;5.95;4.63;;;;;;;34.58;31.70;94410.97;5089915;28;20730;-80
2022/08/19 06:16:38;;;;;;;6.03;4.50;;;;;;;35.10;31.21;94417.63;5088279;28;20225;-76
2022/08/19 06:19:09;;;;;;;6.07;5.45;;;;;;;35.42;30.74;94421.34;5089448;28;20234;-75
2022/08/19 06:21:38;;;;;;;6.40;5.50;;;;;;;34.59;31.91;94416.09;5089349;28;20698;-75
2022/08/19 06:24:07;;;;;;;6.43;5.30;;;;;;;36.31;30.35;94411.00;5089032;28;20212;-75
2022/08/19 06:26:35;;;;;;;6.63;5.45;;;;;;;36.10;30.01;94417.19;5089199;28;20194;-76
2022/08/19 06:29:05;;;;;;;5.25;4.75;;;;;;;35.35;30.50;94409.75;5088844;28;20226;-76
2022/08/19 06:31:35;;;;;;;6.20;4.63;;;;;;;35.44;31.13;94423.69;5089919;28;20217;-76
2022/08/19 06:34:03;;;;;;;6.95;4.80;;;;;;;35.59;30.54;94415.91;5076288;28;20223;-76
2022/08/19 06:36:35;;;;;;;7.22;5.90;;;;;;;36.17;30.11;94413.94;5089660;28;20606;-76
2022/08/19 06:39:03;;;;;;;6.25;5.00;;;;;;;35.42;30.88;94420.56;5089194;28;20225;-74
2022/08/19 06:41:31;;;;;;;10.52;5.60;;;;;;;35.39;31.03;94415.94;5089261;28;20228;-76
2022/08/19 06:43:58;;;;;;;6.18;5.57;;;;;;;34.04;32.71;94415.19;5089643;28;20198;-75
2022/08/19 06:46:27;;;;;;;6.53;5.13;;;;;;;34.91;31.99;94417.09;5089091;28;20206;-76
2022/08/19 06:48:54;;;;;;;7.57;4.82;;;;;;;34.97;32.54;94419.22;5089071;28;20768;-74
2022/08/19 06:51:23;;;;;;;7.35;5.75;;;;;;;34.23;32.09;94413.72;5089395;28;20198;-74
2022/08/19 06:53:52;;;;;;;6.45;5.22;;;;;;;34.99;31.19;94414.63;5089109;28;20577;-75
2022/08/19 06:56:21;;;;;;;8.15;5.35;;;;;;;34.19;32.01;94413.91;5089062;28;20228;-75
2022/08/19 06:58:52;;;;;;;8.10;5.10;;;;;;;34.20;33.04;94420.31;5088921;28;20325;-75
2022/08/19 07:01:21;;;;;;;6.93;5.28;;;;;;;34.91;30.83;94424.78;5088567;28;20656;-75
2022/08/19 07:03:50;;;;;;;6.78;5.15;;;;;;;35.38;31.05;94420.81;5089389;28;20198;-74
2022/08/19 07:06:19;;;;;;;6.20;5.38;;;;;;;34.78;31.94;94425.13;5088892;28;20355;-75
2022/08/19 07:08:47;;;;;;;6.32;5.18;;;;;;;34.95;31.96;94427.41;5088863;28;20669;-75
2022/08/19 07:11:18;;;;;;;6.40;5.05;;;;;;;35.18;31.13;94430.00;5088815;28;20203;-75
2022/08/19 07:13:48;;;;;;;6.22;5.03;;;;;;;34.31;32.23;94431.78;5088775;28;20221;-74
2022/08/19 07:16:19;;;;;;;6.70;5.57;;;;;;;35.02;31.84;94427.75;5088245;28;20236;-76
2022/08/19 07:18:46;;;;;;;9.35;5.47;;;;;;;35.26;31.60;94419.88;5088252;28;20215;-75
2022/08/19 07:21:17;;;;;;;11.00;6.30;;;;;;;34.91;32.16;94427.59;5088712;28;20584;-75
2022/08/19 07:23:45;;;;;;;7.88;5.82;;;;;;;33.07;34.91;94430.69;5088879;28;20243;-76
2022/08/19 07:26:15;;;;;;;11.68;5.95;;;;;;;33.25;35.14;94431.84;5088189;28;20224;-77
2022/08/19 07:28:44;;;;;;;8.60;5.90;;;;;;;32.17;36.78;94435.44;5088449;28;20232;-76
2022/08/19 07:31:12;;;;;;;10.20;6.00;;;;;;;32.04;37.18;94432.06;5088425;28;20233;-76
2022/08/19 07:33:40;;;;;;;8.38;5.78;;;;;;;32.58;36.56;94430.31;5088660;28;20277;-77
2022/08/19 07:36:11;;;;;;;9.80;6.10;;;;;;;32.46;37.04;94432.88;5088581;28;20194;-76
2022/08/19 07:38:41;;;;;;;7.45;5.60;;;;;;;33.39;35.15;94422.66;5090236;28;20285;-75
2022/08/19 07:41:10;;;;;;;6.72;5.35;;;;;;;33.12;35.63;94424.41;5092843;28;20191;-75
2022/08/19 07:43:37;;;;;;;9.38;5.80;;;;;;;33.36;34.62;94427.22;5078870;28;20281;-75
2022/08/19 07:46:04;;;;;;;7.15;5.50;;;;;;;33.61;34.26;94420.31;5092076;28;20248;-75
2022/08/19 07:48:32;;;;;;;7.85;5.00;;;;;;;34.03;34.20;94422.84;5092769;28;20243;-75
2022/08/19 07:51:01;;;;;;;6.97;5.25;;;;;;;32.80;35.27;94419.66;5092348;28;20206;-74
2022/08/19 07:53:29;;;;;;;9.80;5.57;;;;;;;33.43;34.31;94424.03;5092568;28;20205;-76
2022/08/19 07:55:59;;;;;;;8.32;5.60;;;;;;;33.25;34.57;94423.41;5093010;28;20194;-75
2022/08/19 07:58:27;;;;;;;14.85;5.10;;;;;;;34.08;33.60;94419.38;5093107;28;20198;-76
2022/08/19 08:00:53;;;;;;;6.53;5.18;;;;;;;33.57;35.24;94430.16;5092754;28;20387;-75
2022/08/19 08:09:10;;;;;;;9.07;5.50;;;;;;;32.82;36.30;94419.94;5092537;28;20213;-75
2022/08/19 08:09:17;;;;;;;7.38;5.60;;;;;;;34.39;33.55;94415.28;5091961;28;20245;-75
2022/08/19 08:11:49;;;;;;;10.25;5.20;;;;;;;33.11;34.57;94422.84;5092159;28;20201;-75
2022/08/19 08:14:18;;;;;;;11.15;5.85;;;;;;;33.58;34.62;94421.25;5092260;28;20236;-75
2022/08/19 08:16:46;;;;;;;8.20;5.50;;;;;;;33.36;34.16;94415.97;5092128;28;20234;-76
2022/08/19 08:19:15;;;;;;;7.88;5.25;;;;;;;32.85;35.22;94421.78;5092285;28;20321;-75
2022/08/19 08:21:43;;;;;;;6.35;4.95;;;;;;;32.95;34.52;94414.84;5092268;28;20204;-76
2022/08/19 08:24:10;;;;;;;7.75;5.03;;;;;;;32.73;34.38;94411.56;5092139;28;20202;-76
2022/08/19 08:26:37;;;;;;;6.78;5.15;;;;;;;33.86;32.84;94402.13;5092495;28;20194;-76
2022/08/19 08:29:07;;;;;;;6.05;4.90;;;;;;;33.42;33.74;94407.66;5091912;28;20260;-76
2022/08/19 08:31:34;;;;;;;6.68;4.90;;;;;;;33.10;34.19;94404.44;5092312;28;20259;-75
2022/08/19 08:34:01;;;;;;;6.20;5.25;;;;;;;32.74;35.45;94404.72;5091768;28;20207;-76
2022/08/19 08:36:28;;;;;;;5.55;4.82;;;;;;;32.17;35.30;94399.00;5092033;28;20351;-75
2022/08/19 08:38:56;;;;;;;6.55;4.63;;;;;;;32.70;34.86;94404.06;5091874;28;20285;-75
2022/08/19 08:41:29;;;;;;;9.20;4.78;;;;;;;32.70;34.70;94392.84;5091555;28;20213;-75
2022/08/19 08:43:57;;;;;;;5.78;4.60;;;;;;;32.48;34.48;94393.91;5092242;28;20252;-76
2022/08/19 08:46:31;;;;;;;8.02;4.10;;;;;;;32.40;33.60;94401.09;5091539;28;20225;-75
2022/08/19 08:49:05;;;;;;;5.40;4.00;;;;;;;32.63;32.78;94394.00;5091074;28;20200;-75
2022/08/19 08:51:38;;;;;;;4.28;3.50;;;;;;;32.41;32.12;94388.63;5091364;28;20202;-76
2022/08/19 08:54:08;;;;;;;3.90;3.30;;;;;;;32.72;32.77;94391.16;5091527;28;20606;-76
2022/08/19 08:56:35;;;;;;;4.93;3.78;;;;;;;33.42;31.32;94393.63;5091589;28;20202;-76
2022/08/19 08:59:08;;;;;;;4.38;3.05;;;;;;;34.05;28.93;94380.19;5091024;28;20210;-74
2022/08/19 09:01:36;;;;;;;3.35;3.05;;;;;;;34.45;28.75;94380.34;5078005;28;20277;-74
2022/08/19 09:04:05;;;;;;;4.50;3.45;;;;;;;34.42;29.36;94381.34;5091055;28;20285;-76
2022/08/19 09:06:42;;;;;;;5.68;3.90;;;;;;;33.91;32.25;94378.16;5090965;28;20202;-75
2022/08/19 09:09:16;;;;;;;5.45;4.15;;;;;;;33.49;33.54;94368.72;5091656;28;20222;-76
2022/08/19 09:11:56;;;;;;;4.32;3.92;;;;;;;33.04;32.55;94378.31;5092554;28;20646;-76
2022/08/19 09:14:37;;;;;;;5.18;3.47;;;;;;;33.02;31.93;94380.81;5091407;28;20275;-75
2022/08/19 09:17:07;;;;;;;5.25;3.80;;;;;;;33.45;32.19;94378.63;5090375;28;20233;-76
2022/08/19 09:19:35;;;;;;;4.65;4.00;;;;;;;33.96;30.97;94366.25;5090563;28;20321;-75
2022/08/19 09:22:02;;;;;;;3.50;3.15;;;;;;;33.69;28.64;94370.88;5090449;28;20202;-75
2022/08/19 09:24:29;;;;;;;5.75;3.30;;;;;;;33.27;29.93;94379.53;5091304;28;20202;-76
2022/08/19 09:26:55;;;;;;;3.20;2.90;;;;;;;32.92;30.54;94370.13;5090713;28;20209;-76
2022/08/19 09:29:22;;;;;;;5.10;3.70;;;;;;;33.00;30.01;94366.47;5090471;28;20226;-76
2022/08/19 09:31:50;;;;;;;3.72;3.30;;;;;;;33.51;29.29;94365.44;5089954;28;20661;-76
2022/08/19 09:34:19;;;;;;;4.45;3.40;;;;;;;33.56;29.34;94356.34;5089867;28;20924;-75
2022/08/19 09:36:46;;;;;;;3.90;3.38;;;;;;;33.28;29.64;94355.03;5090702;28;20234;-76
2022/08/19 09:39:13;;;;;;;3.78;3.25;;;;;;;33.58;29.74;94365.06;5090457;28;20691;-76
2022/08/19 09:41:40;;;;;;;9.38;3.45;;;;;;;34.08;29.47;94351.09;5090611;28;20202;-80
2022/08/19 09:44:07;;;;;;;5.90;3.58;;;;;;;33.63;28.82;94355.94;5090960;28;20634;-76
2022/08/19 09:46:34;;;;;;;3.60;3.20;;;;;;;33.68;28.37;94355.28;5090753;28;20199;-76
2022/08/19 09:49:01;;;;;;;3.60;3.08;;;;;;;33.68;28.68;94355.28;5090245;28;20202;-75
2022/08/19 09:51:29;;;;;;;3.80;2.95;;;;;;;33.38;28.12;94353.69;5090189;28;20263;-75
2022/08/19 09:54:01;;;;;;;3.67;3.35;;;;;;;33.40;28.01;94348.38;5090635;28;20202;-76
2022/08/19 09:56:28;;;;;;;4.25;3.45;;;;;;;33.70;28.17;94347.13;5090185;28;20190;-75
2022/08/19 09:58:55;;;;;;;4.47;2.80;;;;;;;34.35;26.72;94347.97;5090730;28;20222;-76
2022/08/19 10:01:24;;;;;;;4.18;3.10;;;;;;;34.09;26.99;94345.00;5088833;28;20226;-75
2022/08/19 10:03:53;;;;;;;3.90;3.30;;;;;;;34.35;27.38;94336.72;5090507;28;20202;-75
2022/08/19 10:06:21;;;;;;;5.68;3.53;;;;;;;34.63;27.34;94328.66;5090334;28;20202;-76
2022/08/19 10:08:50;;;;;;;4.60;3.70;;;;;;;34.75;26.97;94323.94;5090578;28;20243;-75
2022/08/19 10:11:18;;;;;;;5.60;3.13;;;;;;;34.92;26.67;94327.78;5090229;28;20218;-75
2022/08/19 10:13:46;;;;;;;4.85;3.42;;;;;;;34.89;26.71;94326.72;5090363;28;20209;-76
2022/08/19 10:16:15;;;;;;;4.70;2.97;;;;;;;35.09;27.28;94331.56;5089931;28;20291;-76
2022/08/19 10:18:43;;;;;;;4.10;3.28;;;;;;;34.70;27.16;94322.63;5090078;28;20190;-76
2022/08/19 10:21:13;;;;;;;4.10;3.70;;;;;;;34.72;27.82;94324.91;5089292;28;20233;-76
2022/08/19 10:23:43;;;;;;;5.25;3.90;;;;;;;35.05;27.55;94322.56;5089799;28;20198;-76
2022/08/19 10:26:13;;;;;;;4.85;3.78;;;;;;;35.47;26.59;94315.59;5089394;28;20661;-74
2022/08/19 10:28:40;;;;;;;4.65;3.50;;;;;;;35.60;25.76;94315.97;5089523;28;20299;-76
2022/08/19 10:31:09;;;;;;;4.10;3.70;;;;;;;35.62;25.63;94310.63;5089790;28;20202;-77
2022/08/19 10:33:37;;;;;;;3.85;3.45;;;;;;;35.36;25.59;94312.69;5090142;28;20258;-75
2022/08/19 10:36:07;;;;;;;4.00;3.60;;;;;;;35.39;25.39;94304.00;5089928;28;20202;-75
2022/08/19 10:38:34;;;;;;;8.10;5.40;;;;;;;35.59;25.88;94311.63;5089812;28;20228;-75
2022/08/19 10:41:08;;;;;;;5.40;3.95;;;;;;;35.77;25.85;94300.03;5089706;28;20307;-75
2022/08/19 10:43:38;;;;;;;4.10;3.75;;;;;;;35.60;25.70;94299.06;5089696;28;20262;-74
2022/08/19 10:46:05;;;;;;;4.68;3.90;;;;;;;35.98;25.71;94298.66;5089516;28;20194;-75
2022/08/19 10:48:33;;;;;;;4.28;3.72;;;;;;;35.61;25.82;94304.22;5089408;28;20665;-74
2022/08/19 10:53:44;;;;;;;5.38;3.83;;;;;;;35.37;25.66;94300.13;5089599;28;20310;-76
2022/08/19 10:58:57;;;;;;;6.68;3.85;;;;;;;35.22;27.08;94301.00;5089833;28;20239;-76
2022/08/19 11:01:24;;;;;;;4.50;3.45;;;;;;;35.30;26.30;94306.19;5089364;28;20226;-76
2022/08/19 11:03:51;;;;;;;9.20;5.55;;;;;;;35.48;26.29;94288.97;5089257;28;20209;-76
2022/08/19 11:06:19;;;;;;;6.55;3.97;;;;;;;35.43;25.99;94298.13;5088616;28;20293;-76
2022/08/19 11:08:46;;;;;;;4.40;3.83;;;;;;;35.07;26.47;94291.88;5088502;28;20206;-76
2022/08/19 11:11:13;;;;;;;4.45;3.70;;;;;;;34.91;27.06;94292.44;5075604;28;20253;-75
2022/08/19 11:13:43;;;;;;;4.38;3.53;;;;;;;34.61;26.84;94297.41;5088613;28;20206;-76
2022/08/19 11:16:14;;;;;;;4.47;3.67;;;;;;;34.12;27.40;94292.63;5089016;28;20670;-75
2022/08/19 11:18:44;;;;;;;6.30;3.72;;;;;;;33.99;27.62;94297.81;5088663;28;20248;-76
2022/08/19 11:21:16;;;;;;;5.32;3.53;;;;;;;34.34;27.95;94287.34;5088873;28;20321;-76
2022/08/19 11:23:44;;;;;;;4.00;3.58;;;;;;;34.22;27.36;94288.41;5088641;28;20205;-76
2022/08/19 11:26:12;;;;;;;4.10;3.65;;;;;;;34.13;27.72;94288.56;5089583;28;20293;-75
2022/08/19 11:28:39;;;;;;;4.00;3.60;;;;;;;34.09;28.12;94285.16;5089477;28;20307;-75
2022/08/19 11:31:12;;;;;;;4.45;3.78;;;;;;;33.84;28.07;94290.16;5089581;28;20206;-76
2022/08/19 11:33:39;;;;;;;7.30;3.80;;;;;;;33.88;28.57;94273.88;5089019;28;20222;-75
2022/08/19 11:36:07;;;;;;;4.32;3.50;;;;;;;33.72;28.42;94277.16;5089266;28;20225;-75
2022/08/19 11:38:35;;;;;;;7.07;4.13;;;;;;;33.94;28.76;94276.00;5088864;28;20300;-75
2022/08/19 11:41:05;;;;;;;4.80;3.85;;;;;;;34.30;27.87;94275.53;5088442;28;20237;-75
2022/08/19 11:43:32;;;;;;;4.45;4.03;;;;;;;34.28;27.78;94275.25;5089184;28;20190;-77
2022/08/19 11:45:59;;;;;;;5.45;4.18;;;;;;;34.23;27.92;94270.28;5088979;28;20275;-77
2022/08/19 11:48:27;;;;;;;5.63;4.05;;;;;;;34.78;27.45;94275.13;5088780;28;20255;-76
2022/08/19 11:50:56;;;;;;;4.30;3.90;;;;;;;34.50;27.14;94269.13;5088898;28;20638;-74
2022/08/19 11:53:23;;;;;;;4.88;4.30;;;;;;;34.97;27.19;94267.94;5088678;28;20560;-76
2022/08/19 11:55:52;;;;;;;6.18;3.78;;;;;;;35.46;26.66;94260.50;5088870;28;20255;-75